sensor_id;sensor_type;location;lat;lon;timestamp;P1;durP1;ratioP1;P2;durP2;ratioP2
13753;SDS011;6948;51.216;6.778;2022-12-31T01:20:34;2.47;;;1.13;;
13753;SDS011;6948;51.216;6.778;2022-12-31T07:44:06;2.13;;;0.90;;
13753;SDS011;6948;51.216;6.778;2022-12-31T07:49:14;2.73;;;0.97;;
13753;SDS011;6948;51.216;6.778;2022-12-31T07:51:41;2.50;;;0.90;;
13753;SDS011;6948;51.216;6.778;2022-12-31T07:54:07;2.50;;;1.10;;
13753;SDS011;6948;51.216;6.778;2022-12-31T07:56:33;2.47;;;0.97;;
13753;SDS011;6948;51.216;6.778;2022-12-31T07:59:01;2.50;;;1.10;;
13753;SDS011;6948;51.216;6.778;2022-12-31T08:01:35;2.33;;;0.90;;
13753;SDS011;6948;51.216;6.778;2022-12-31T08:12:07;2.37;;;1.30;;
13753;SDS011;6948;51.216;6.778;2022-12-31T08:14:35;3.17;;;0.87;;
13753;SDS011;6948;51.216;6.778;2022-12-31T08:17:02;3.07;;;1.23;;
13753;SDS011;6948;51.216;6.778;2022-12-31T08:19:29;2.37;;;0.93;;
13753;SDS011;6948;51.216;6.778;2022-12-31T08:22:14;2.67;;;1.10;;
13753;SDS011;6948;51.216;6.778;2022-12-31T08:30:14;3.97;;;1.10;;
13753;SDS011;6948;51.216;6.778;2022-12-31T08:35:46;4.13;;;1.60;;
13753;SDS011;6948;51.216;6.778;2022-12-31T08:40:54;2.03;;;1.10;;
13753;SDS011;6948;51.216;6.778;2022-12-31T08:46:00;1.83;;;1.10;;
13753;SDS011;6948;51.216;6.778;2022-12-31T08:48:32;1.87;;;1.20;;
13753;SDS011;6948;51.216;6.778;2022-12-31T08:51:00;4.07;;;1.20;;
13753;SDS011;6948;51.216;6.778;2022-12-31T08:53:26;2.50;;;1.17;;
13753;SDS011;6948;51.216;6.778;2022-12-31T08:55:55;3.13;;;1.23;;
13753;SDS011;6948;51.216;6.778;2022-12-31T09:00:59;4.57;;;1.40;;
13753;SDS011;6948;51.216;6.778;2022-12-31T09:03:32;3.63;;;1.20;;
13753;SDS011;6948;51.216;6.778;2022-12-31T09:11:45;3.33;;;1.30;;
13753;SDS011;6948;51.216;6.778;2022-12-31T09:19:33;3.47;;;1.40;;
13753;SDS011;6948;51.216;6.778;2022-12-31T09:21:59;3.00;;;1.50;;
13753;SDS011;6948;51.216;6.778;2022-12-31T09:24:25;2.67;;;1.33;;
13753;SDS011;6948;51.216;6.778;2022-12-31T09:32:26;4.27;;;1.40;;
13753;SDS011;6948;51.216;6.778;2022-12-31T09:34:58;5.40;;;1.57;;
13753;SDS011;6948;51.216;6.778;2022-12-31T09:40:25;3.07;;;1.40;;
13753;SDS011;6948;51.216;6.778;2022-12-31T09:43:01;2.80;;;1.30;;
13753;SDS011;6948;51.216;6.778;2022-12-31T09:53:58;2.63;;;1.30;;
13753;SDS011;6948;51.216;6.778;2022-12-31T09:56:29;3.57;;;1.20;;
13753;SDS011;6948;51.216;6.778;2022-12-31T09:59:04;3.97;;;1.30;;
13753;SDS011;6948;51.216;6.778;2022-12-31T10:04:35;3.10;;;1.30;;
13753;SDS011;6948;51.216;6.778;2022-12-31T10:07:08;3.13;;;1.27;;
13753;SDS011;6948;51.216;6.778;2022-12-31T10:37:12;3.97;;;1.60;;
13753;SDS011;6948;51.216;6.778;2022-12-31T10:50:37;5.37;;;1.70;;
13753;SDS011;6948;51.216;6.778;2022-12-31T10:55:55;6.47;;;1.57;;
13753;SDS011;6948;51.216;6.778;2022-12-31T11:12:01;3.23;;;1.37;;
13753;SDS011;6948;51.216;6.778;2022-12-31T11:17:14;3.00;;;1.40;;
13753;SDS011;6948;51.216;6.778;2022-12-31T11:25:25;3.80;;;1.40;;
13753;SDS011;6948;51.216;6.778;2022-12-31T11:27:55;5.17;;;1.47;;
13753;SDS011;6948;51.216;6.778;2022-12-31T11:33:10;4.03;;;1.73;;
13753;SDS011;6948;51.216;6.778;2022-12-31T11:40:55;4.23;;;1.50;;
13753;SDS011;6948;51.216;6.778;2022-12-31T11:43:26;3.07;;;1.30;;
13753;SDS011;6948;51.216;6.778;2022-12-31T11:46:01;4.37;;;1.57;;
13753;SDS011;6948;51.216;6.778;2022-12-31T11:48:31;5.57;;;2.00;;
13753;SDS011;6948;51.216;6.778;2022-12-31T11:56:19;3.20;;;1.47;;
13753;SDS011;6948;51.216;6.778;2022-12-31T11:58:50;3.13;;;1.47;;
13753;SDS011;6948;51.216;6.778;2022-12-31T12:01:17;3.90;;;1.70;;
13753;SDS011;6948;51.216;6.778;2022-12-31T12:03:44;4.30;;;1.70;;
13753;SDS011;6948;51.216;6.778;2022-12-31T12:06:12;4.57;;;1.50;;
13753;SDS011;6948;51.216;6.778;2022-12-31T12:08:39;3.37;;;1.60;;
13753;SDS011;6948;51.216;6.778;2022-12-31T12:11:06;3.77;;;1.50;;
13753;SDS011;6948;51.216;6.778;2022-12-31T12:13:33;4.03;;;1.47;;
13753;SDS011;6948;51.216;6.778;2022-12-31T12:16:00;4.73;;;1.57;;
13753;SDS011;6948;51.216;6.778;2022-12-31T12:18:29;4.07;;;1.47;;
13753;SDS011;6948;51.216;6.778;2022-12-31T12:21:10;4.23;;;1.57;;
13753;SDS011;6948;51.216;6.778;2022-12-31T12:23:37;5.50;;;1.80;;
13753;SDS011;6948;51.216;6.778;2022-12-31T12:26:03;4.47;;;1.70;;
13753;SDS011;6948;51.216;6.778;2022-12-31T12:28:30;2.97;;;1.30;;
13753;SDS011;6948;51.216;6.778;2022-12-31T12:31:05;3.43;;;1.50;;
13753;SDS011;6948;51.216;6.778;2022-12-31T12:33:40;4.07;;;1.50;;
13753;SDS011;6948;51.216;6.778;2022-12-31T12:36:08;4.30;;;1.50;;
13753;SDS011;6948;51.216;6.778;2022-12-31T12:38:34;2.67;;;1.57;;
13753;SDS011;6948;51.216;6.778;2022-12-31T12:41:01;4.93;;;1.83;;
13753;SDS011;6948;51.216;6.778;2022-12-31T12:43:29;3.47;;;1.60;;
13753;SDS011;6948;51.216;6.778;2022-12-31T12:45:58;5.00;;;1.50;;
13753;SDS011;6948;51.216;6.778;2022-12-31T12:48:41;5.37;;;1.60;;
13753;SDS011;6948;51.216;6.778;2022-12-31T12:51:13;4.90;;;1.60;;
13753;SDS011;6948;51.216;6.778;2022-12-31T12:53:44;5.20;;;1.70;;
13753;SDS011;6948;51.216;6.778;2022-12-31T12:56:18;7.57;;;1.90;;
13753;SDS011;6948;51.216;6.778;2022-12-31T12:58:55;4.97;;;1.90;;
13753;SDS011;6948;51.216;6.778;2022-12-31T13:01:34;5.23;;;1.50;;
13753;SDS011;6948;51.216;6.778;2022-12-31T13:04:07;5.87;;;1.40;;
13753;SDS011;6948;51.216;6.778;2022-12-31T13:09:31;5.50;;;1.80;;
13753;SDS011;6948;51.216;6.778;2022-12-31T13:12:03;6.33;;;1.60;;
13753;SDS011;6948;51.216;6.778;2022-12-31T13:17:25;9.13;;;2.00;;
13753;SDS011;6948;51.216;6.778;2022-12-31T13:19:55;4.30;;;1.40;;
13753;SDS011;6948;51.216;6.778;2022-12-31T13:25:06;6.87;;;1.90;;
13753;SDS011;6948;51.216;6.778;2022-12-31T13:27:37;6.93;;;1.53;;
13753;SDS011;6948;51.216;6.778;2022-12-31T13:30:12;6.27;;;1.83;;
13753;SDS011;6948;51.216;6.778;2022-12-31T13:32:39;4.63;;;2.00;;
13753;SDS011;6948;51.216;6.778;2022-12-31T13:37:57;7.07;;;1.70;;
13753;SDS011;6948;51.216;6.778;2022-12-31T13:40:26;4.20;;;1.90;;
13753;SDS011;6948;51.216;6.778;2022-12-31T13:42:58;6.73;;;2.00;;
13753;SDS011;6948;51.216;6.778;2022-12-31T13:45:27;7.70;;;1.87;;
13753;SDS011;6948;51.216;6.778;2022-12-31T13:47:57;5.90;;;1.90;;
13753;SDS011;6948;51.216;6.778;2022-12-31T13:50:27;5.87;;;1.80;;
13753;SDS011;6948;51.216;6.778;2022-12-31T13:52:57;4.90;;;1.60;;
13753;SDS011;6948;51.216;6.778;2022-12-31T13:55:29;5.20;;;1.80;;
13753;SDS011;6948;51.216;6.778;2022-12-31T13:58:00;7.27;;;1.83;;
13753;SDS011;6948;51.216;6.778;2022-12-31T14:00:34;5.67;;;1.80;;
13753;SDS011;6948;51.216;6.778;2022-12-31T14:03:11;7.10;;;2.50;;
13753;SDS011;6948;51.216;6.778;2022-12-31T14:08:24;6.27;;;1.90;;
13753;SDS011;6948;51.216;6.778;2022-12-31T14:10:57;4.47;;;2.23;;
13753;SDS011;6948;51.216;6.778;2022-12-31T14:13:36;5.00;;;2.07;;
13753;SDS011;6948;51.216;6.778;2022-12-31T14:16:17;4.67;;;1.93;;
13753;SDS011;6948;51.216;6.778;2022-12-31T14:18:46;4.20;;;1.97;;
13753;SDS011;6948;51.216;6.778;2022-12-31T14:21:27;6.53;;;2.30;;
13753;SDS011;6948;51.216;6.778;2022-12-31T14:23:58;3.87;;;1.90;;
13753;SDS011;6948;51.216;6.778;2022-12-31T14:26:26;4.80;;;2.00;;
13753;SDS011;6948;51.216;6.778;2022-12-31T14:34:32;4.17;;;2.23;;
13753;SDS011;6948;51.216;6.778;2022-12-31T14:37:06;6.07;;;2.27;;
13753;SDS011;6948;51.216;6.778;2022-12-31T14:47:54;4.83;;;2.27;;
13753;SDS011;6948;51.216;6.778;2022-12-31T14:50:24;5.00;;;2.60;;
13753;SDS011;6948;51.216;6.778;2022-12-31T14:55:29;6.03;;;2.60;;
13753;SDS011;6948;51.216;6.778;2022-12-31T14:57:57;4.50;;;2.27;;
13753;SDS011;6948;51.216;6.778;2022-12-31T15:21:33;5.17;;;2.43;;
13753;SDS011;6948;51.216;6.778;2022-12-31T15:24:11;5.13;;;2.27;;
13753;SDS011;6948;51.216;6.778;2022-12-31T15:26:37;5.63;;;1.97;;
13753;SDS011;6948;51.216;6.778;2022-12-31T15:29:28;4.87;;;2.17;;
13753;SDS011;6948;51.216;6.778;2022-12-31T15:31:55;6.70;;;2.37;;
13753;SDS011;6948;51.216;6.778;2022-12-31T15:34:31;4.27;;;1.80;;
13753;SDS011;6948;51.216;6.778;2022-12-31T15:37:00;4.17;;;1.83;;
13753;SDS011;6948;51.216;6.778;2022-12-31T15:39:36;6.97;;;2.30;;
13753;SDS011;6948;51.216;6.778;2022-12-31T15:42:03;6.43;;;2.10;;
13753;SDS011;6948;51.216;6.778;2022-12-31T15:44:50;6.63;;;2.23;;
13753;SDS011;6948;51.216;6.778;2022-12-31T15:47:36;6.53;;;2.43;;
13753;SDS011;6948;51.216;6.778;2022-12-31T15:50:05;6.73;;;2.33;;
13753;SDS011;6948;51.216;6.778;2022-12-31T15:52:37;4.07;;;2.40;;
13753;SDS011;6948;51.216;6.778;2022-12-31T15:55:04;6.03;;;2.53;;
13753;SDS011;6948;51.216;6.778;2022-12-31T15:57:33;3.57;;;1.93;;
13753;SDS011;6948;51.216;6.778;2022-12-31T16:00:04;2.77;;;1.93;;
13753;SDS011;6948;51.216;6.778;2022-12-31T16:02:32;3.80;;;2.00;;
13753;SDS011;6948;51.216;6.778;2022-12-31T16:04:58;6.20;;;2.40;;
13753;SDS011;6948;51.216;6.778;2022-12-31T16:07:25;6.80;;;2.13;;
13753;SDS011;6948;51.216;6.778;2022-12-31T16:09:52;4.83;;;2.20;;
13753;SDS011;6948;51.216;6.778;2022-12-31T16:12:21;5.03;;;2.30;;
13753;SDS011;6948;51.216;6.778;2022-12-31T16:14:50;3.23;;;2.27;;
13753;SDS011;6948;51.216;6.778;2022-12-31T16:17:33;4.57;;;2.47;;
13753;SDS011;6948;51.216;6.778;2022-12-31T16:20:00;5.50;;;2.20;;
13753;SDS011;6948;51.216;6.778;2022-12-31T16:22:29;3.70;;;2.27;;
13753;SDS011;6948;51.216;6.778;2022-12-31T16:25:00;5.87;;;2.87;;
13753;SDS011;6948;51.216;6.778;2022-12-31T16:27:27;3.30;;;1.97;;
13753;SDS011;6948;51.216;6.778;2022-12-31T16:29:58;5.27;;;2.40;;
13753;SDS011;6948;51.216;6.778;2022-12-31T16:32:25;5.03;;;2.50;;
13753;SDS011;6948;51.216;6.778;2022-12-31T16:34:51;4.83;;;2.30;;
13753;SDS011;6948;51.216;6.778;2022-12-31T16:37:19;5.83;;;2.37;;
13753;SDS011;6948;51.216;6.778;2022-12-31T16:42:32;4.70;;;2.20;;
13753;SDS011;6948;51.216;6.778;2022-12-31T16:45:15;5.27;;;2.23;;
13753;SDS011;6948;51.216;6.778;2022-12-31T16:47:41;4.43;;;2.10;;
13753;SDS011;6948;51.216;6.778;2022-12-31T16:52:50;4.63;;;2.30;;
13753;SDS011;6948;51.216;6.778;2022-12-31T16:55:22;3.97;;;2.20;;
13753;SDS011;6948;51.216;6.778;2022-12-31T16:57:50;4.90;;;2.27;;
13753;SDS011;6948;51.216;6.778;2022-12-31T17:00:20;2.90;;;2.20;;
13753;SDS011;6948;51.216;6.778;2022-12-31T17:02:48;6.17;;;2.73;;
13753;SDS011;6948;51.216;6.778;2022-12-31T17:05:19;4.67;;;2.20;;
13753;SDS011;6948;51.216;6.778;2022-12-31T17:07:45;5.93;;;2.23;;
13753;SDS011;6948;51.216;6.778;2022-12-31T17:10:14;6.07;;;2.60;;
13753;SDS011;6948;51.216;6.778;2022-12-31T17:12:42;5.87;;;2.40;;
13753;SDS011;6948;51.216;6.778;2022-12-31T17:15:15;3.67;;;2.43;;
13753;SDS011;6948;51.216;6.778;2022-12-31T17:17:41;4.70;;;2.40;;
13753;SDS011;6948;51.216;6.778;2022-12-31T17:26:20;3.83;;;2.13;;
13753;SDS011;6948;51.216;6.778;2022-12-31T17:28:48;5.97;;;2.67;;
13753;SDS011;6948;51.216;6.778;2022-12-31T17:36:51;5.63;;;2.27;;
13753;SDS011;6948;51.216;6.778;2022-12-31T17:39:19;4.77;;;2.07;;
13753;SDS011;6948;51.216;6.778;2022-12-31T17:41:46;4.17;;;2.03;;
13753;SDS011;6948;51.216;6.778;2022-12-31T17:44:21;5.63;;;2.57;;
13753;SDS011;6948;51.216;6.778;2022-12-31T17:46:48;5.70;;;2.20;;
13753;SDS011;6948;51.216;6.778;2022-12-31T17:49:14;5.33;;;2.33;;
13753;SDS011;6948;51.216;6.778;2022-12-31T17:51:40;6.93;;;2.50;;
13753;SDS011;6948;51.216;6.778;2022-12-31T17:54:15;5.40;;;2.40;;
13753;SDS011;6948;51.216;6.778;2022-12-31T17:56:41;3.93;;;2.33;;
13753;SDS011;6948;51.216;6.778;2022-12-31T17:59:07;5.40;;;2.27;;
13753;SDS011;6948;51.216;6.778;2022-12-31T18:01:35;4.67;;;2.37;;
13753;SDS011;6948;51.216;6.778;2022-12-31T18:04:01;5.07;;;2.37;;
13753;SDS011;6948;51.216;6.778;2022-12-31T18:06:27;6.53;;;2.70;;
13753;SDS011;6948;51.216;6.778;2022-12-31T18:08:53;4.40;;;2.40;;
13753;SDS011;6948;51.216;6.778;2022-12-31T18:11:20;4.23;;;2.27;;
13753;SDS011;6948;51.216;6.778;2022-12-31T18:13:47;4.87;;;2.30;;
13753;SDS011;6948;51.216;6.778;2022-12-31T18:16:13;4.87;;;2.40;;
13753;SDS011;6948;51.216;6.778;2022-12-31T18:18:39;3.80;;;2.33;;
13753;SDS011;6948;51.216;6.778;2022-12-31T18:21:07;5.00;;;2.40;;
13753;SDS011;6948;51.216;6.778;2022-12-31T18:23:35;4.83;;;2.70;;
13753;SDS011;6948;51.216;6.778;2022-12-31T18:26:02;5.60;;;2.57;;
13753;SDS011;6948;51.216;6.778;2022-12-31T18:28:28;5.53;;;2.60;;
13753;SDS011;6948;51.216;6.778;2022-12-31T18:30:54;7.83;;;2.77;;
13753;SDS011;6948;51.216;6.778;2022-12-31T18:33:20;4.90;;;2.50;;
13753;SDS011;6948;51.216;6.778;2022-12-31T18:35:49;5.60;;;2.50;;
13753;SDS011;6948;51.216;6.778;2022-12-31T18:38:16;4.50;;;2.70;;
13753;SDS011;6948;51.216;6.778;2022-12-31T18:40:43;8.03;;;2.40;;
13753;SDS011;6948;51.216;6.778;2022-12-31T18:43:12;5.17;;;2.33;;
13753;SDS011;6948;51.216;6.778;2022-12-31T18:45:39;6.17;;;2.27;;
13753;SDS011;6948;51.216;6.778;2022-12-31T18:48:05;4.97;;;2.53;;
13753;SDS011;6948;51.216;6.778;2022-12-31T18:53:27;5.07;;;3.10;;
13753;SDS011;6948;51.216;6.778;2022-12-31T18:55:53;7.90;;;3.40;;
13753;SDS011;6948;51.216;6.778;2022-12-31T18:58:20;8.03;;;3.80;;
13753;SDS011;6948;51.216;6.778;2022-12-31T19:00:46;5.67;;;3.20;;
13753;SDS011;6948;51.216;6.778;2022-12-31T19:03:14;6.07;;;3.23;;
13753;SDS011;6948;51.216;6.778;2022-12-31T19:05:40;8.37;;;3.70;;
13753;SDS011;6948;51.216;6.778;2022-12-31T19:08:07;6.57;;;3.63;;
13753;SDS011;6948;51.216;6.778;2022-12-31T19:10:35;6.07;;;4.00;;
13753;SDS011;6948;51.216;6.778;2022-12-31T19:13:10;6.93;;;4.13;;
13753;SDS011;6948;51.216;6.778;2022-12-31T19:15:41;9.93;;;5.00;;
13753;SDS011;6948;51.216;6.778;2022-12-31T19:18:12;9.60;;;4.40;;
13753;SDS011;6948;51.216;6.778;2022-12-31T19:20:46;7.30;;;3.80;;
13753;SDS011;6948;51.216;6.778;2022-12-31T19:23:13;8.90;;;4.30;;
13753;SDS011;6948;51.216;6.778;2022-12-31T19:25:43;5.47;;;3.33;;
13753;SDS011;6948;51.216;6.778;2022-12-31T19:28:18;8.07;;;4.23;;
13753;SDS011;6948;51.216;6.778;2022-12-31T19:30:45;10.80;;;4.80;;
13753;SDS011;6948;51.216;6.778;2022-12-31T19:33:14;7.47;;;4.43;;
13753;SDS011;6948;51.216;6.778;2022-12-31T19:35:44;8.23;;;3.40;;
13753;SDS011;6948;51.216;6.778;2022-12-31T19:38:26;8.77;;;4.10;;
13753;SDS011;6948;51.216;6.778;2022-12-31T19:40:54;8.20;;;3.30;;
13753;SDS011;6948;51.216;6.778;2022-12-31T19:43:21;5.27;;;3.07;;
13753;SDS011;6948;51.216;6.778;2022-12-31T19:45:48;9.40;;;2.90;;
13753;SDS011;6948;51.216;6.778;2022-12-31T19:48:18;5.83;;;3.00;;
13753;SDS011;6948;51.216;6.778;2022-12-31T19:50:48;6.97;;;3.20;;
13753;SDS011;6948;51.216;6.778;2022-12-31T19:53:19;8.20;;;2.80;;
13753;SDS011;6948;51.216;6.778;2022-12-31T19:55:45;5.50;;;2.50;;
13753;SDS011;6948;51.216;6.778;2022-12-31T19:58:14;6.70;;;3.00;;
13753;SDS011;6948;51.216;6.778;2022-12-31T20:00:42;6.77;;;2.80;;
13753;SDS011;6948;51.216;6.778;2022-12-31T20:03:09;8.67;;;3.00;;
13753;SDS011;6948;51.216;6.778;2022-12-31T20:05:35;7.03;;;3.17;;
13753;SDS011;6948;51.216;6.778;2022-12-31T20:08:01;9.17;;;2.90;;
13753;SDS011;6948;51.216;6.778;2022-12-31T20:10:31;10.77;;;3.20;;
13753;SDS011;6948;51.216;6.778;2022-12-31T20:12:57;9.43;;;3.10;;
13753;SDS011;6948;51.216;6.778;2022-12-31T20:15:23;7.83;;;3.10;;
13753;SDS011;6948;51.216;6.778;2022-12-31T20:17:52;10.77;;;3.30;;
13753;SDS011;6948;51.216;6.778;2022-12-31T20:20:24;7.23;;;3.30;;
13753;SDS011;6948;51.216;6.778;2022-12-31T20:22:53;8.50;;;3.13;;
13753;SDS011;6948;51.216;6.778;2022-12-31T20:25:19;7.37;;;3.03;;
13753;SDS011;6948;51.216;6.778;2022-12-31T20:27:45;10.33;;;3.33;;
13753;SDS011;6948;51.216;6.778;2022-12-31T20:30:11;11.30;;;3.20;;
13753;SDS011;6948;51.216;6.778;2022-12-31T20:32:39;10.70;;;3.07;;
13753;SDS011;6948;51.216;6.778;2022-12-31T20:35:05;13.90;;;3.27;;
13753;SDS011;6948;51.216;6.778;2022-12-31T20:37:31;6.73;;;3.30;;
13753;SDS011;6948;51.216;6.778;2022-12-31T20:39:58;10.33;;;3.17;;
13753;SDS011;6948;51.216;6.778;2022-12-31T20:42:24;9.17;;;3.20;;
13753;SDS011;6948;51.216;6.778;2022-12-31T20:44:50;12.93;;;3.30;;
13753;SDS011;6948;51.216;6.778;2022-12-31T20:47:16;8.73;;;2.90;;
13753;SDS011;6948;51.216;6.778;2022-12-31T20:49:42;6.73;;;2.90;;
13753;SDS011;6948;51.216;6.778;2022-12-31T20:52:08;13.37;;;3.20;;
13753;SDS011;6948;51.216;6.778;2022-12-31T20:54:34;10.47;;;2.83;;
13753;SDS011;6948;51.216;6.778;2022-12-31T20:57:01;16.67;;;9.33;;
13753;SDS011;6948;51.216;6.778;2022-12-31T20:59:27;10.43;;;5.10;;
13753;SDS011;6948;51.216;6.778;2022-12-31T21:01:54;10.50;;;3.03;;
13753;SDS011;6948;51.216;6.778;2022-12-31T21:04:20;9.67;;;2.83;;
13753;SDS011;6948;51.216;6.778;2022-12-31T21:06:46;24.67;;;18.43;;
13753;SDS011;6948;51.216;6.778;2022-12-31T21:09:12;7.97;;;2.67;;
13753;SDS011;6948;51.216;6.778;2022-12-31T21:11:38;6.80;;;2.90;;
13753;SDS011;6948;51.216;6.778;2022-12-31T21:14:24;10.87;;;2.70;;
13753;SDS011;6948;51.216;6.778;2022-12-31T21:16:50;7.17;;;2.93;;
13753;SDS011;6948;51.216;6.778;2022-12-31T21:19:16;9.70;;;3.63;;
13753;SDS011;6948;51.216;6.778;2022-12-31T21:21:43;8.27;;;3.50;;
13753;SDS011;6948;51.216;6.778;2022-12-31T21:24:09;6.80;;;2.83;;
13753;SDS011;6948;51.216;6.778;2022-12-31T21:26:35;6.30;;;2.83;;
13753;SDS011;6948;51.216;6.778;2022-12-31T21:29:01;5.97;;;2.53;;
13753;SDS011;6948;51.216;6.778;2022-12-31T21:31:27;9.40;;;3.13;;
13753;SDS011;6948;51.216;6.778;2022-12-31T21:33:53;8.17;;;3.17;;
13753;SDS011;6948;51.216;6.778;2022-12-31T21:36:19;7.80;;;3.80;;
13753;SDS011;6948;51.216;6.778;2022-12-31T21:38:45;10.27;;;3.90;;
13753;SDS011;6948;51.216;6.778;2022-12-31T21:41:12;9.53;;;3.30;;
13753;SDS011;6948;51.216;6.778;2022-12-31T21:43:58;9.97;;;3.13;;
13753;SDS011;6948;51.216;6.778;2022-12-31T21:46:27;11.30;;;3.20;;
13753;SDS011;6948;51.216;6.778;2022-12-31T21:48:55;9.07;;;3.27;;
13753;SDS011;6948;51.216;6.778;2022-12-31T21:51:21;7.93;;;3.20;;
13753;SDS011;6948;51.216;6.778;2022-12-31T21:53:48;11.67;;;3.33;;
13753;SDS011;6948;51.216;6.778;2022-12-31T21:56:14;8.83;;;3.17;;
13753;SDS011;6948;51.216;6.778;2022-12-31T21:58:47;7.20;;;3.27;;
13753;SDS011;6948;51.216;6.778;2022-12-31T22:01:33;9.63;;;3.50;;
13753;SDS011;6948;51.216;6.778;2022-12-31T22:04:19;10.63;;;3.70;;
13753;SDS011;6948;51.216;6.778;2022-12-31T22:06:45;5.53;;;2.77;;
13753;SDS011;6948;51.216;6.778;2022-12-31T22:09:11;5.63;;;2.70;;
13753;SDS011;6948;51.216;6.778;2022-12-31T22:11:38;6.80;;;2.70;;
13753;SDS011;6948;51.216;6.778;2022-12-31T22:14:04;7.70;;;2.73;;
13753;SDS011;6948;51.216;6.778;2022-12-31T22:16:30;7.53;;;2.60;;
13753;SDS011;6948;51.216;6.778;2022-12-31T22:18:56;9.03;;;2.60;;
13753;SDS011;6948;51.216;6.778;2022-12-31T22:21:23;10.43;;;3.33;;
13753;SDS011;6948;51.216;6.778;2022-12-31T22:23:51;9.23;;;2.97;;
13753;SDS011;6948;51.216;6.778;2022-12-31T22:26:18;9.30;;;3.17;;
13753;SDS011;6948;51.216;6.778;2022-12-31T22:28:45;10.57;;;3.37;;
13753;SDS011;6948;51.216;6.778;2022-12-31T22:31:12;8.47;;;3.33;;
13753;SDS011;6948;51.216;6.778;2022-12-31T22:33:38;8.20;;;2.70;;
13753;SDS011;6948;51.216;6.778;2022-12-31T22:36:05;10.27;;;2.87;;
13753;SDS011;6948;51.216;6.778;2022-12-31T22:38:32;8.27;;;2.73;;
13753;SDS011;6948;51.216;6.778;2022-12-31T22:41:00;10.30;;;2.97;;
13753;SDS011;6948;51.216;6.778;2022-12-31T22:43:29;6.70;;;2.70;;
13753;SDS011;6948;51.216;6.778;2022-12-31T22:45:56;10.13;;;3.43;;
13753;SDS011;6948;51.216;6.778;2022-12-31T22:48:22;9.97;;;4.20;;
13753;SDS011;6948;51.216;6.778;2022-12-31T22:50:56;11.60;;;3.67;;
13753;SDS011;6948;51.216;6.778;2022-12-31T22:53:22;8.97;;;3.40;;
13753;SDS011;6948;51.216;6.778;2022-12-31T22:55:48;14.80;;;4.10;;
13753;SDS011;6948;51.216;6.778;2022-12-31T22:58:14;11.60;;;4.30;;
13753;SDS011;6948;51.216;6.778;2022-12-31T23:00:44;9.73;;;3.93;;
13753;SDS011;6948;51.216;6.778;2022-12-31T23:03:33;12.97;;;6.97;;
13753;SDS011;6948;51.216;6.778;2022-12-31T23:06:08;71.83;;;49.17;;
13753;SDS011;6948;51.216;6.778;2022-12-31T23:08:34;77.63;;;53.57;;
13753;SDS011;6948;51.216;6.778;2022-12-31T23:11:00;81.03;;;57.27;;
13753;SDS011;6948;51.216;6.778;2022-12-31T23:13:35;79.67;;;50.63;;
13753;SDS011;6948;51.216;6.778;2022-12-31T23:16:21;58.43;;;42.67;;
13753;SDS011;6948;51.216;6.778;2022-12-31T23:19:08;74.63;;;47.47;;
13753;SDS011;6948;51.216;6.778;2022-12-31T23:21:54;81.17;;;52.10;;
13753;SDS011;6948;51.216;6.778;2022-12-31T23:24:58;63.33;;;45.80;;
13753;SDS011;6948;51.216;6.778;2022-12-31T23:27:26;95.30;;;57.90;;
13753;SDS011;6948;51.216;6.778;2022-12-31T23:30:00;74.43;;;44.97;;
13753;SDS011;6948;51.216;6.778;2022-12-31T23:32:29;63.13;;;39.23;;
13753;SDS011;6948;51.216;6.778;2022-12-31T23:35:03;48.23;;;30.20;;
13753;SDS011;6948;51.216;6.778;2022-12-31T23:37:32;38.83;;;25.80;;
13753;SDS011;6948;51.216;6.778;2022-12-31T23:40:04;30.30;;;18.40;;
13753;SDS011;6948;51.216;6.778;2022-12-31T23:42:31;24.43;;;15.70;;
13753;SDS011;6948;51.216;6.778;2022-12-31T23:44:59;25.10;;;13.53;;
13753;SDS011;6948;51.216;6.778;2022-12-31T23:47:26;20.90;;;12.53;;
13753;SDS011;6948;51.216;6.778;2022-12-31T23:49:57;22.23;;;10.67;;
13753;SDS011;6948;51.216;6.778;2022-12-31T23:52:28;18.53;;;9.27;;
13753;SDS011;6948;51.216;6.778;2022-12-31T23:54:57;17.07;;;8.83;;
13753;SDS011;6948;51.216;6.778;2022-12-31T23:57:35;17.37;;;10.50;;
